sensor_id;sensor_type;location;lat;lon;timestamp;P1;durP1;ratioP1;P2;durP2;ratioP2
34317;SDS011;20582;52.196;20.952;2023-02-26T00:00:36;7.13;;;3.80;;
34317;SDS011;20582;52.196;20.952;2023-02-26T00:03:02;6.78;;;3.67;;
34317;SDS011;20582;52.196;20.952;2023-02-26T00:05:28;7.97;;;3.78;;
34317;SDS011;20582;52.196;20.952;2023-02-26T00:07:54;7.80;;;3.60;;
34317;SDS011;20582;52.196;20.952;2023-02-26T00:10:20;7.30;;;3.75;;
34317;SDS011;20582;52.196;20.952;2023-02-26T00:12:46;10.77;;;4.13;;
34317;SDS011;20582;52.196;20.952;2023-02-26T00:15:12;7.05;;;3.50;;
34317;SDS011;20582;52.196;20.952;2023-02-26T00:17:41;8.13;;;3.80;;
34317;SDS011;20582;52.196;20.952;2023-02-26T00:20:09;6.53;;;3.40;;
34317;SDS011;20582;52.196;20.952;2023-02-26T00:22:36;7.82;;;3.70;;
34317;SDS011;20582;52.196;20.952;2023-02-26T00:25:02;7.07;;;3.28;;
34317;SDS011;20582;52.196;20.952;2023-02-26T00:27:28;6.63;;;3.45;;
34317;SDS011;20582;52.196;20.952;2023-02-26T00:29:54;6.15;;;3.30;;
34317;SDS011;20582;52.196;20.952;2023-02-26T00:32:20;5.50;;;3.00;;
34317;SDS011;20582;52.196;20.952;2023-02-26T00:34:46;8.82;;;3.85;;
34317;SDS011;20582;52.196;20.952;2023-02-26T00:42:11;6.43;;;3.15;;
34317;SDS011;20582;52.196;20.952;2023-02-26T00:44:37;6.70;;;3.03;;
34317;SDS011;20582;52.196;20.952;2023-02-26T00:52:38;6.32;;;3.28;;
34317;SDS011;20582;52.196;20.952;2023-02-26T00:55:05;7.55;;;3.35;;
34317;SDS011;20582;52.196;20.952;2023-02-26T00:57:31;5.88;;;3.20;;
34317;SDS011;20582;52.196;20.952;2023-02-26T00:59:57;7.53;;;3.30;;
34317;SDS011;20582;52.196;20.952;2023-02-26T01:02:23;5.75;;;2.95;;
34317;SDS011;20582;52.196;20.952;2023-02-26T01:04:49;5.32;;;2.95;;
34317;SDS011;20582;52.196;20.952;2023-02-26T01:07:16;6.07;;;2.90;;
34317;SDS011;20582;52.196;20.952;2023-02-26T01:09:44;6.32;;;2.95;;
34317;SDS011;20582;52.196;20.952;2023-02-26T01:12:10;5.60;;;2.88;;
34317;SDS011;20582;52.196;20.952;2023-02-26T01:14:37;6.20;;;3.10;;
34317;SDS011;20582;52.196;20.952;2023-02-26T01:17:17;4.57;;;2.72;;
34317;SDS011;20582;52.196;20.952;2023-02-26T01:22:24;6.45;;;3.17;;
34317;SDS011;20582;52.196;20.952;2023-02-26T01:24:54;6.10;;;2.80;;
34317;SDS011;20582;52.196;20.952;2023-02-26T01:27:20;6.90;;;3.10;;
34317;SDS011;20582;52.196;20.952;2023-02-26T01:29:46;6.65;;;3.55;;
34317;SDS011;20582;52.196;20.952;2023-02-26T01:32:15;7.07;;;3.25;;
34317;SDS011;20582;52.196;20.952;2023-02-26T01:34:45;6.80;;;3.22;;
34317;SDS011;20582;52.196;20.952;2023-02-26T01:37:20;6.90;;;3.55;;
34317;SDS011;20582;52.196;20.952;2023-02-26T01:42:26;8.13;;;3.80;;
34317;SDS011;20582;52.196;20.952;2023-02-26T01:47:21;7.85;;;3.40;;
34317;SDS011;20582;52.196;20.952;2023-02-26T01:49:48;7.50;;;3.65;;
34317;SDS011;20582;52.196;20.952;2023-02-26T01:54:59;6.82;;;3.50;;
34317;SDS011;20582;52.196;20.952;2023-02-26T01:57:25;7.47;;;3.50;;
34317;SDS011;20582;52.196;20.952;2023-02-26T01:59:51;7.25;;;3.60;;
34317;SDS011;20582;52.196;20.952;2023-02-26T02:02:19;7.32;;;3.72;;
34317;SDS011;20582;52.196;20.952;2023-02-26T02:04:45;7.65;;;4.00;;
34317;SDS011;20582;52.196;20.952;2023-02-26T02:07:12;7.82;;;3.75;;
34317;SDS011;20582;52.196;20.952;2023-02-26T02:09:38;6.85;;;3.35;;
34317;SDS011;20582;52.196;20.952;2023-02-26T02:14:40;7.88;;;3.60;;
34317;SDS011;20582;52.196;20.952;2023-02-26T02:17:18;6.97;;;3.72;;
34317;SDS011;20582;52.196;20.952;2023-02-26T02:22:50;6.57;;;3.55;;
34317;SDS011;20582;52.196;20.952;2023-02-26T02:27:57;7.75;;;4.20;;
34317;SDS011;20582;52.196;20.952;2023-02-26T02:32:59;8.50;;;3.67;;
34317;SDS011;20582;52.196;20.952;2023-02-26T02:35:40;7.13;;;3.83;;
34317;SDS011;20582;52.196;20.952;2023-02-26T02:40:36;8.35;;;4.18;;
34317;SDS011;20582;52.196;20.952;2023-02-26T02:43:08;7.65;;;3.85;;
34317;SDS011;20582;52.196;20.952;2023-02-26T02:45:39;8.10;;;4.15;;
34317;SDS011;20582;52.196;20.952;2023-02-26T02:48:15;7.00;;;3.63;;
34317;SDS011;20582;52.196;20.952;2023-02-26T02:50:43;7.85;;;3.60;;
34317;SDS011;20582;52.196;20.952;2023-02-26T02:53:16;7.50;;;3.60;;
34317;SDS011;20582;52.196;20.952;2023-02-26T02:55:52;8.52;;;4.25;;
34317;SDS011;20582;52.196;20.952;2023-02-26T02:58:24;7.80;;;3.58;;
34317;SDS011;20582;52.196;20.952;2023-02-26T03:00:52;8.13;;;3.78;;
34317;SDS011;20582;52.196;20.952;2023-02-26T03:05:51;8.70;;;4.20;;
34317;SDS011;20582;52.196;20.952;2023-02-26T03:08:18;8.30;;;3.90;;
34317;SDS011;20582;52.196;20.952;2023-02-26T03:10:45;8.38;;;4.05;;
34317;SDS011;20582;52.196;20.952;2023-02-26T03:13:15;8.43;;;4.28;;
34317;SDS011;20582;52.196;20.952;2023-02-26T03:20:44;8.95;;;4.28;;
34317;SDS011;20582;52.196;20.952;2023-02-26T03:23:18;9.13;;;4.10;;
34317;SDS011;20582;52.196;20.952;2023-02-26T03:28:33;8.50;;;4.15;;
34317;SDS011;20582;52.196;20.952;2023-02-26T03:33:43;7.50;;;3.75;;
34317;SDS011;20582;52.196;20.952;2023-02-26T03:36:13;8.50;;;4.13;;
34317;SDS011;20582;52.196;20.952;2023-02-26T03:38:47;9.20;;;4.55;;
34317;SDS011;20582;52.196;20.952;2023-02-26T03:41:32;7.78;;;3.65;;
34317;SDS011;20582;52.196;20.952;2023-02-26T03:44:00;7.13;;;3.78;;
34317;SDS011;20582;52.196;20.952;2023-02-26T03:46:50;7.97;;;3.67;;
34317;SDS011;20582;52.196;20.952;2023-02-26T03:49:19;8.60;;;3.53;;
34317;SDS011;20582;52.196;20.952;2023-02-26T03:51:46;8.40;;;3.85;;
34317;SDS011;20582;52.196;20.952;2023-02-26T03:54:23;7.70;;;4.05;;
34317;SDS011;20582;52.196;20.952;2023-02-26T03:56:51;7.57;;;3.80;;
34317;SDS011;20582;52.196;20.952;2023-02-26T03:59:17;8.75;;;3.88;;
34317;SDS011;20582;52.196;20.952;2023-02-26T04:02:06;7.95;;;3.92;;
34317;SDS011;20582;52.196;20.952;2023-02-26T04:04:39;8.25;;;3.97;;
34317;SDS011;20582;52.196;20.952;2023-02-26T04:07:09;7.75;;;3.92;;
34317;SDS011;20582;52.196;20.952;2023-02-26T04:09:36;7.95;;;3.80;;
34317;SDS011;20582;52.196;20.952;2023-02-26T04:12:03;7.25;;;3.55;;
34317;SDS011;20582;52.196;20.952;2023-02-26T04:14:28;7.75;;;3.55;;
34317;SDS011;20582;52.196;20.952;2023-02-26T04:16:54;7.28;;;3.67;;
34317;SDS011;20582;52.196;20.952;2023-02-26T04:19:20;6.65;;;3.33;;
34317;SDS011;20582;52.196;20.952;2023-02-26T04:21:46;7.75;;;4.00;;
34317;SDS011;20582;52.196;20.952;2023-02-26T04:24:12;7.15;;;3.42;;
34317;SDS011;20582;52.196;20.952;2023-02-26T04:26:38;7.60;;;3.78;;
34317;SDS011;20582;52.196;20.952;2023-02-26T04:29:04;6.97;;;3.70;;
34317;SDS011;20582;52.196;20.952;2023-02-26T04:31:30;9.15;;;3.95;;
34317;SDS011;20582;52.196;20.952;2023-02-26T04:33:56;8.00;;;3.97;;
34317;SDS011;20582;52.196;20.952;2023-02-26T04:36:22;6.70;;;3.60;;
34317;SDS011;20582;52.196;20.952;2023-02-26T04:38:48;7.57;;;3.97;;
34317;SDS011;20582;52.196;20.952;2023-02-26T04:41:14;6.95;;;3.78;;
34317;SDS011;20582;52.196;20.952;2023-02-26T04:43:40;7.50;;;3.80;;
34317;SDS011;20582;52.196;20.952;2023-02-26T04:46:06;8.77;;;3.80;;
34317;SDS011;20582;52.196;20.952;2023-02-26T04:48:32;8.05;;;4.13;;
34317;SDS011;20582;52.196;20.952;2023-02-26T04:50:58;7.88;;;3.75;;
34317;SDS011;20582;52.196;20.952;2023-02-26T04:53:24;7.40;;;3.80;;
34317;SDS011;20582;52.196;20.952;2023-02-26T04:55:50;9.50;;;4.30;;
34317;SDS011;20582;52.196;20.952;2023-02-26T04:58:16;7.15;;;3.90;;
34317;SDS011;20582;52.196;20.952;2023-02-26T05:00:42;9.57;;;4.40;;
34317;SDS011;20582;52.196;20.952;2023-02-26T05:03:08;8.82;;;4.25;;
34317;SDS011;20582;52.196;20.952;2023-02-26T05:05:35;8.20;;;3.85;;
34317;SDS011;20582;52.196;20.952;2023-02-26T05:08:01;8.30;;;4.30;;
34317;SDS011;20582;52.196;20.952;2023-02-26T05:10:26;8.05;;;4.00;;
34317;SDS011;20582;52.196;20.952;2023-02-26T05:12:52;8.85;;;3.80;;
34317;SDS011;20582;52.196;20.952;2023-02-26T05:15:18;8.57;;;4.20;;
34317;SDS011;20582;52.196;20.952;2023-02-26T05:17:45;7.45;;;3.90;;
34317;SDS011;20582;52.196;20.952;2023-02-26T05:20:11;6.82;;;3.63;;
34317;SDS011;20582;52.196;20.952;2023-02-26T05:22:37;7.65;;;3.47;;
34317;SDS011;20582;52.196;20.952;2023-02-26T05:25:03;7.70;;;3.58;;
34317;SDS011;20582;52.196;20.952;2023-02-26T05:27:30;7.55;;;3.47;;
34317;SDS011;20582;52.196;20.952;2023-02-26T05:29:56;8.27;;;3.60;;
34317;SDS011;20582;52.196;20.952;2023-02-26T05:32:22;6.30;;;3.38;;
34317;SDS011;20582;52.196;20.952;2023-02-26T05:34:48;9.00;;;3.30;;
34317;SDS011;20582;52.196;20.952;2023-02-26T05:37:14;7.85;;;3.22;;
34317;SDS011;20582;52.196;20.952;2023-02-26T05:39:40;6.85;;;3.10;;
34317;SDS011;20582;52.196;20.952;2023-02-26T05:42:06;6.93;;;3.00;;
34317;SDS011;20582;52.196;20.952;2023-02-26T05:44:32;7.72;;;3.22;;
34317;SDS011;20582;52.196;20.952;2023-02-26T05:46:59;6.20;;;3.13;;
34317;SDS011;20582;52.196;20.952;2023-02-26T05:49:25;5.95;;;2.78;;
34317;SDS011;20582;52.196;20.952;2023-02-26T05:51:51;4.60;;;2.45;;
34317;SDS011;20582;52.196;20.952;2023-02-26T05:54:17;5.80;;;3.10;;
34317;SDS011;20582;52.196;20.952;2023-02-26T05:56:43;6.03;;;2.85;;
34317;SDS011;20582;52.196;20.952;2023-02-26T05:59:09;6.38;;;3.20;;
34317;SDS011;20582;52.196;20.952;2023-02-26T06:01:35;9.50;;;3.35;;
34317;SDS011;20582;52.196;20.952;2023-02-26T06:04:02;6.28;;;2.70;;
34317;SDS011;20582;52.196;20.952;2023-02-26T06:06:28;4.68;;;2.42;;
34317;SDS011;20582;52.196;20.952;2023-02-26T06:08:54;5.80;;;2.75;;
34317;SDS011;20582;52.196;20.952;2023-02-26T06:11:20;6.00;;;2.70;;
34317;SDS011;20582;52.196;20.952;2023-02-26T06:13:46;6.18;;;2.60;;
34317;SDS011;20582;52.196;20.952;2023-02-26T06:16:12;5.28;;;2.42;;
34317;SDS011;20582;52.196;20.952;2023-02-26T06:18:38;4.15;;;1.92;;
34317;SDS011;20582;52.196;20.952;2023-02-26T06:21:04;5.15;;;1.98;;
34317;SDS011;20582;52.196;20.952;2023-02-26T06:23:30;3.78;;;2.10;;
34317;SDS011;20582;52.196;20.952;2023-02-26T06:25:56;3.97;;;2.00;;
34317;SDS011;20582;52.196;20.952;2023-02-26T06:28:23;5.03;;;2.03;;
34317;SDS011;20582;52.196;20.952;2023-02-26T06:30:51;4.53;;;2.10;;
34317;SDS011;20582;52.196;20.952;2023-02-26T06:33:17;4.25;;;2.17;;
34317;SDS011;20582;52.196;20.952;2023-02-26T06:35:43;4.53;;;2.17;;
34317;SDS011;20582;52.196;20.952;2023-02-26T06:38:09;5.35;;;2.25;;
34317;SDS011;20582;52.196;20.952;2023-02-26T06:40:35;5.32;;;2.40;;
34317;SDS011;20582;52.196;20.952;2023-02-26T06:43:01;4.22;;;2.35;;
34317;SDS011;20582;52.196;20.952;2023-02-26T06:45:27;6.28;;;2.40;;
34317;SDS011;20582;52.196;20.952;2023-02-26T06:47:53;6.13;;;2.50;;
34317;SDS011;20582;52.196;20.952;2023-02-26T06:50:19;4.88;;;2.60;;
34317;SDS011;20582;52.196;20.952;2023-02-26T06:52:45;6.68;;;2.25;;
34317;SDS011;20582;52.196;20.952;2023-02-26T06:55:11;5.35;;;2.38;;
34317;SDS011;20582;52.196;20.952;2023-02-26T06:57:37;4.82;;;2.42;;
34317;SDS011;20582;52.196;20.952;2023-02-26T07:00:04;5.13;;;2.13;;
34317;SDS011;20582;52.196;20.952;2023-02-26T07:02:30;4.25;;;2.22;;
34317;SDS011;20582;52.196;20.952;2023-02-26T07:04:56;4.05;;;1.98;;
34317;SDS011;20582;52.196;20.952;2023-02-26T07:07:22;4.13;;;2.03;;
34317;SDS011;20582;52.196;20.952;2023-02-26T07:09:48;4.43;;;2.20;;
34317;SDS011;20582;52.196;20.952;2023-02-26T07:12:14;5.90;;;2.08;;
34317;SDS011;20582;52.196;20.952;2023-02-26T07:14:40;4.43;;;1.88;;
34317;SDS011;20582;52.196;20.952;2023-02-26T07:17:10;5.72;;;2.15;;
34317;SDS011;20582;52.196;20.952;2023-02-26T07:19:44;6.28;;;2.83;;
34317;SDS011;20582;52.196;20.952;2023-02-26T07:22:10;4.13;;;2.20;;
34317;SDS011;20582;52.196;20.952;2023-02-26T07:24:36;5.50;;;2.25;;
34317;SDS011;20582;52.196;20.952;2023-02-26T07:27:02;3.67;;;2.00;;
34317;SDS011;20582;52.196;20.952;2023-02-26T07:29:28;4.03;;;1.90;;
34317;SDS011;20582;52.196;20.952;2023-02-26T07:31:54;3.92;;;1.90;;
34317;SDS011;20582;52.196;20.952;2023-02-26T07:34:20;4.57;;;2.00;;
34317;SDS011;20582;52.196;20.952;2023-02-26T07:36:46;5.38;;;2.50;;
34317;SDS011;20582;52.196;20.952;2023-02-26T07:39:12;3.78;;;2.05;;
34317;SDS011;20582;52.196;20.952;2023-02-26T07:41:38;5.07;;;2.33;;
34317;SDS011;20582;52.196;20.952;2023-02-26T07:44:04;3.83;;;2.10;;
34317;SDS011;20582;52.196;20.952;2023-02-26T07:46:30;4.57;;;2.45;;
34317;SDS011;20582;52.196;20.952;2023-02-26T07:48:55;6.28;;;2.70;;
34317;SDS011;20582;52.196;20.952;2023-02-26T07:51:21;4.78;;;2.58;;
34317;SDS011;20582;52.196;20.952;2023-02-26T07:53:47;4.13;;;2.20;;
34317;SDS011;20582;52.196;20.952;2023-02-26T07:56:13;6.70;;;2.40;;
34317;SDS011;20582;52.196;20.952;2023-02-26T07:58:39;4.78;;;2.60;;
34317;SDS011;20582;52.196;20.952;2023-02-26T08:01:05;4.00;;;2.20;;
34317;SDS011;20582;52.196;20.952;2023-02-26T08:03:31;6.47;;;2.30;;
34317;SDS011;20582;52.196;20.952;2023-02-26T08:05:57;5.03;;;2.47;;
34317;SDS011;20582;52.196;20.952;2023-02-26T08:08:24;6.97;;;2.88;;
34317;SDS011;20582;52.196;20.952;2023-02-26T08:10:50;6.00;;;2.50;;
34317;SDS011;20582;52.196;20.952;2023-02-26T08:13:16;6.88;;;2.50;;
34317;SDS011;20582;52.196;20.952;2023-02-26T08:15:42;4.95;;;2.42;;
34317;SDS011;20582;52.196;20.952;2023-02-26T08:18:09;4.70;;;2.42;;
34317;SDS011;20582;52.196;20.952;2023-02-26T08:20:35;5.03;;;2.40;;
34317;SDS011;20582;52.196;20.952;2023-02-26T08:23:01;5.25;;;2.50;;
34317;SDS011;20582;52.196;20.952;2023-02-26T08:25:27;4.53;;;2.40;;
34317;SDS011;20582;52.196;20.952;2023-02-26T08:27:53;5.18;;;2.20;;
34317;SDS011;20582;52.196;20.952;2023-02-26T08:30:21;7.72;;;2.85;;
34317;SDS011;20582;52.196;20.952;2023-02-26T08:32:47;5.60;;;2.40;;
34317;SDS011;20582;52.196;20.952;2023-02-26T08:35:13;5.72;;;2.35;;
34317;SDS011;20582;52.196;20.952;2023-02-26T08:37:40;4.38;;;2.10;;
34317;SDS011;20582;52.196;20.952;2023-02-26T08:40:06;5.55;;;2.10;;
34317;SDS011;20582;52.196;20.952;2023-02-26T08:42:33;5.78;;;2.20;;
34317;SDS011;20582;52.196;20.952;2023-02-26T08:44:59;6.40;;;2.15;;
34317;SDS011;20582;52.196;20.952;2023-02-26T08:47:25;5.78;;;2.30;;
34317;SDS011;20582;52.196;20.952;2023-02-26T08:49:50;4.72;;;2.50;;
34317;SDS011;20582;52.196;20.952;2023-02-26T08:52:17;5.72;;;2.30;;
34317;SDS011;20582;52.196;20.952;2023-02-26T08:54:43;5.22;;;2.50;;
34317;SDS011;20582;52.196;20.952;2023-02-26T08:57:09;4.90;;;2.40;;
34317;SDS011;20582;52.196;20.952;2023-02-26T08:59:35;4.82;;;2.10;;
34317;SDS011;20582;52.196;20.952;2023-02-26T09:02:01;6.18;;;2.47;;
34317;SDS011;20582;52.196;20.952;2023-02-26T09:04:27;3.83;;;1.73;;
34317;SDS011;20582;52.196;20.952;2023-02-26T09:06:53;3.75;;;1.90;;
34317;SDS011;20582;52.196;20.952;2023-02-26T09:09:19;3.83;;;2.00;;
34317;SDS011;20582;52.196;20.952;2023-02-26T09:11:45;2.17;;;1.17;;
34317;SDS011;20582;52.196;20.952;2023-02-26T09:14:11;3.10;;;1.60;;
34317;SDS011;20582;52.196;20.952;2023-02-26T09:16:37;3.55;;;1.92;;
34317;SDS011;20582;52.196;20.952;2023-02-26T09:19:04;4.35;;;1.88;;
34317;SDS011;20582;52.196;20.952;2023-02-26T09:21:30;3.47;;;1.67;;
34317;SDS011;20582;52.196;20.952;2023-02-26T09:23:56;3.40;;;1.95;;
34317;SDS011;20582;52.196;20.952;2023-02-26T09:26:22;2.65;;;1.63;;
34317;SDS011;20582;52.196;20.952;2023-02-26T09:28:48;4.95;;;2.00;;
34317;SDS011;20582;52.196;20.952;2023-02-26T09:31:14;3.78;;;1.85;;
34317;SDS011;20582;52.196;20.952;2023-02-26T09:33:40;3.10;;;1.70;;
34317;SDS011;20582;52.196;20.952;2023-02-26T09:36:06;2.63;;;1.75;;
34317;SDS011;20582;52.196;20.952;2023-02-26T09:38:32;5.85;;;2.10;;
34317;SDS011;20582;52.196;20.952;2023-02-26T09:41:03;3.15;;;1.90;;
34317;SDS011;20582;52.196;20.952;2023-02-26T09:51:39;6.47;;;3.00;;
34317;SDS011;20582;52.196;20.952;2023-02-26T09:54:11;4.60;;;2.10;;
34317;SDS011;20582;52.196;20.952;2023-02-26T09:56:39;5.07;;;2.28;;
34317;SDS011;20582;52.196;20.952;2023-02-26T09:59:07;4.50;;;2.10;;
34317;SDS011;20582;52.196;20.952;2023-02-26T10:01:34;3.85;;;2.08;;
34317;SDS011;20582;52.196;20.952;2023-02-26T10:12:11;7.40;;;2.60;;
34317;SDS011;20582;52.196;20.952;2023-02-26T10:14:42;5.53;;;2.78;;
34317;SDS011;20582;52.196;20.952;2023-02-26T10:19:55;5.68;;;3.00;;
34317;SDS011;20582;52.196;20.952;2023-02-26T10:22:24;7.50;;;2.80;;
34317;SDS011;20582;52.196;20.952;2023-02-26T10:25:05;5.70;;;2.67;;
34317;SDS011;20582;52.196;20.952;2023-02-26T10:27:37;6.70;;;2.72;;
34317;SDS011;20582;52.196;20.952;2023-02-26T10:35:36;7.07;;;2.85;;
34317;SDS011;20582;52.196;20.952;2023-02-26T10:38:12;5.63;;;2.47;;
34317;SDS011;20582;52.196;20.952;2023-02-26T10:40:54;5.32;;;2.65;;
34317;SDS011;20582;52.196;20.952;2023-02-26T10:43:27;6.50;;;2.90;;
34317;SDS011;20582;52.196;20.952;2023-02-26T10:46:01;5.57;;;2.92;;
34317;SDS011;20582;52.196;20.952;2023-02-26T10:51:14;6.53;;;3.00;;
34317;SDS011;20582;52.196;20.952;2023-02-26T10:53:44;6.40;;;3.03;;
34317;SDS011;20582;52.196;20.952;2023-02-26T10:56:16;6.95;;;2.65;;
34317;SDS011;20582;52.196;20.952;2023-02-26T10:58:42;7.72;;;3.08;;
34317;SDS011;20582;52.196;20.952;2023-02-26T11:01:16;6.68;;;3.00;;
34317;SDS011;20582;52.196;20.952;2023-02-26T11:03:44;6.55;;;2.92;;
34317;SDS011;20582;52.196;20.952;2023-02-26T11:06:17;7.97;;;3.30;;
34317;SDS011;20582;52.196;20.952;2023-02-26T11:08:45;6.65;;;2.80;;
34317;SDS011;20582;52.196;20.952;2023-02-26T11:11:33;7.45;;;3.13;;
34317;SDS011;20582;52.196;20.952;2023-02-26T11:13:58;5.32;;;2.50;;
34317;SDS011;20582;52.196;20.952;2023-02-26T11:16:24;5.47;;;2.53;;
34317;SDS011;20582;52.196;20.952;2023-02-26T11:18:54;5.78;;;2.60;;
34317;SDS011;20582;52.196;20.952;2023-02-26T11:21:21;4.75;;;2.00;;
34317;SDS011;20582;52.196;20.952;2023-02-26T11:23:48;4.53;;;2.08;;
34317;SDS011;20582;52.196;20.952;2023-02-26T11:26:17;3.17;;;1.63;;
34317;SDS011;20582;52.196;20.952;2023-02-26T11:28:45;2.60;;;1.55;;
34317;SDS011;20582;52.196;20.952;2023-02-26T11:31:11;4.30;;;2.00;;
34317;SDS011;20582;52.196;20.952;2023-02-26T11:33:43;4.85;;;2.20;;
34317;SDS011;20582;52.196;20.952;2023-02-26T11:36:19;3.75;;;1.85;;
34317;SDS011;20582;52.196;20.952;2023-02-26T11:38:46;6.28;;;1.80;;
34317;SDS011;20582;52.196;20.952;2023-02-26T11:41:17;3.63;;;2.00;;
34317;SDS011;20582;52.196;20.952;2023-02-26T11:43:44;4.18;;;2.17;;
34317;SDS011;20582;52.196;20.952;2023-02-26T11:46:11;3.53;;;1.90;;
34317;SDS011;20582;52.196;20.952;2023-02-26T11:51:06;3.80;;;2.08;;
34317;SDS011;20582;52.196;20.952;2023-02-26T11:53:34;4.95;;;2.08;;
34317;SDS011;20582;52.196;20.952;2023-02-26T11:56:02;4.53;;;2.22;;
34317;SDS011;20582;52.196;20.952;2023-02-26T11:58:33;5.18;;;2.40;;
34317;SDS011;20582;52.196;20.952;2023-02-26T12:01:00;4.30;;;2.25;;
34317;SDS011;20582;52.196;20.952;2023-02-26T12:03:30;5.45;;;2.25;;
34317;SDS011;20582;52.196;20.952;2023-02-26T12:05:57;5.90;;;2.53;;
34317;SDS011;20582;52.196;20.952;2023-02-26T12:08:35;4.20;;;2.00;;
34317;SDS011;20582;52.196;20.952;2023-02-26T12:11:12;4.40;;;2.30;;
34317;SDS011;20582;52.196;20.952;2023-02-26T12:16:17;7.18;;;2.65;;
34317;SDS011;20582;52.196;20.952;2023-02-26T12:18:48;4.45;;;2.22;;
34317;SDS011;20582;52.196;20.952;2023-02-26T12:31:41;6.15;;;2.80;;
34317;SDS011;20582;52.196;20.952;2023-02-26T12:42:13;6.72;;;2.92;;
34317;SDS011;20582;52.196;20.952;2023-02-26T12:44:54;6.60;;;2.60;;
34317;SDS011;20582;52.196;20.952;2023-02-26T12:47:29;7.50;;;2.67;;
34317;SDS011;20582;52.196;20.952;2023-02-26T12:50:03;7.13;;;3.10;;
34317;SDS011;20582;52.196;20.952;2023-02-26T13:06:03;6.65;;;2.47;;
34317;SDS011;20582;52.196;20.952;2023-02-26T13:08:41;5.20;;;1.80;;
34317;SDS011;20582;52.196;20.952;2023-02-26T13:13:56;5.88;;;1.90;;
34317;SDS011;20582;52.196;20.952;2023-02-26T13:16:31;5.50;;;1.70;;
34317;SDS011;20582;52.196;20.952;2023-02-26T13:21:28;4.18;;;1.70;;
34317;SDS011;20582;52.196;20.952;2023-02-26T13:23:56;4.70;;;1.83;;
34317;SDS011;20582;52.196;20.952;2023-02-26T13:26:25;5.68;;;1.60;;
34317;SDS011;20582;52.196;20.952;2023-02-26T13:28:54;3.85;;;1.75;;
34317;SDS011;20582;52.196;20.952;2023-02-26T13:31:24;5.80;;;1.90;;
34317;SDS011;20582;52.196;20.952;2023-02-26T13:33:50;5.55;;;1.77;;
34317;SDS011;20582;52.196;20.952;2023-02-26T13:36:18;6.60;;;1.83;;
34317;SDS011;20582;52.196;20.952;2023-02-26T13:38:52;4.57;;;1.58;;
34317;SDS011;20582;52.196;20.952;2023-02-26T13:53:57;4.40;;;1.60;;
34317;SDS011;20582;52.196;20.952;2023-02-26T14:06:46;4.57;;;1.60;;
34317;SDS011;20582;52.196;20.952;2023-02-26T14:24:37;4.03;;;1.40;;
34317;SDS011;20582;52.196;20.952;2023-02-26T14:27:07;7.90;;;2.00;;
34317;SDS011;20582;52.196;20.952;2023-02-26T14:32:25;4.97;;;1.80;;
34317;SDS011;20582;52.196;20.952;2023-02-26T14:34:52;6.50;;;1.70;;
34317;SDS011;20582;52.196;20.952;2023-02-26T14:37:22;7.95;;;2.38;;
34317;SDS011;20582;52.196;20.952;2023-02-26T14:39:52;8.23;;;2.00;;
34317;SDS011;20582;52.196;20.952;2023-02-26T14:42:26;6.28;;;1.95;;
34317;SDS011;20582;52.196;20.952;2023-02-26T14:47:39;7.00;;;2.10;;
34317;SDS011;20582;52.196;20.952;2023-02-26T14:50:06;8.57;;;2.22;;
34317;SDS011;20582;52.196;20.952;2023-02-26T14:52:52;5.95;;;2.10;;
34317;SDS011;20582;52.196;20.952;2023-02-26T14:55:26;5.80;;;1.73;;
34317;SDS011;20582;52.196;20.952;2023-02-26T15:03:50;7.20;;;2.13;;
34317;SDS011;20582;52.196;20.952;2023-02-26T15:06:37;5.38;;;2.08;;
34317;SDS011;20582;52.196;20.952;2023-02-26T15:09:18;5.53;;;1.90;;
34317;SDS011;20582;52.196;20.952;2023-02-26T15:16:53;8.60;;;2.25;;
34317;SDS011;20582;52.196;20.952;2023-02-26T15:24:52;9.07;;;2.67;;
34317;SDS011;20582;52.196;20.952;2023-02-26T15:27:18;6.10;;;1.98;;
34317;SDS011;20582;52.196;20.952;2023-02-26T15:29:44;7.45;;;2.08;;
34317;SDS011;20582;52.196;20.952;2023-02-26T15:34:47;6.68;;;2.10;;
34317;SDS011;20582;52.196;20.952;2023-02-26T15:37:17;7.00;;;2.10;;
34317;SDS011;20582;52.196;20.952;2023-02-26T15:39:47;5.38;;;2.10;;
34317;SDS011;20582;52.196;20.952;2023-02-26T15:42:13;7.70;;;2.42;;
34317;SDS011;20582;52.196;20.952;2023-02-26T15:44:39;5.32;;;1.90;;
34317;SDS011;20582;52.196;20.952;2023-02-26T15:47:05;8.88;;;2.28;;
34317;SDS011;20582;52.196;20.952;2023-02-26T15:49:37;6.60;;;2.50;;
34317;SDS011;20582;52.196;20.952;2023-02-26T15:52:03;7.03;;;2.28;;
34317;SDS011;20582;52.196;20.952;2023-02-26T15:54:34;8.95;;;2.42;;
34317;SDS011;20582;52.196;20.952;2023-02-26T15:57:02;5.40;;;1.95;;
34317;SDS011;20582;52.196;20.952;2023-02-26T15:59:28;8.90;;;2.50;;
34317;SDS011;20582;52.196;20.952;2023-02-26T16:01:55;8.27;;;2.53;;
34317;SDS011;20582;52.196;20.952;2023-02-26T16:04:21;7.65;;;2.85;;
34317;SDS011;20582;52.196;20.952;2023-02-26T16:06:49;8.13;;;2.30;;
34317;SDS011;20582;52.196;20.952;2023-02-26T16:09:24;8.45;;;2.70;;
34317;SDS011;20582;52.196;20.952;2023-02-26T16:11:52;7.05;;;2.28;;
34317;SDS011;20582;52.196;20.952;2023-02-26T16:14:23;6.63;;;2.33;;
34317;SDS011;20582;52.196;20.952;2023-02-26T16:16:51;8.75;;;2.60;;
34317;SDS011;20582;52.196;20.952;2023-02-26T16:21:53;6.45;;;2.30;;
34317;SDS011;20582;52.196;20.952;2023-02-26T16:24:19;8.32;;;2.67;;
34317;SDS011;20582;52.196;20.952;2023-02-26T16:26:52;7.10;;;2.45;;
34317;SDS011;20582;52.196;20.952;2023-02-26T16:29:28;6.32;;;2.40;;
34317;SDS011;20582;52.196;20.952;2023-02-26T16:31:56;7.63;;;2.58;;
34317;SDS011;20582;52.196;20.952;2023-02-26T16:36:52;10.15;;;3.30;;
34317;SDS011;20582;52.196;20.952;2023-02-26T16:39:22;7.20;;;2.72;;
34317;SDS011;20582;52.196;20.952;2023-02-26T16:42:00;8.93;;;2.95;;
34317;SDS011;20582;52.196;20.952;2023-02-26T16:46:55;9.65;;;3.10;;
34317;SDS011;20582;52.196;20.952;2023-02-26T16:49:26;9.43;;;3.50;;
34317;SDS011;20582;52.196;20.952;2023-02-26T16:51:55;10.60;;;3.97;;
34317;SDS011;20582;52.196;20.952;2023-02-26T16:54:25;11.05;;;4.00;;
34317;SDS011;20582;52.196;20.952;2023-02-26T16:56:56;11.65;;;4.35;;
34317;SDS011;20582;52.196;20.952;2023-02-26T16:59:24;12.98;;;4.03;;
34317;SDS011;20582;52.196;20.952;2023-02-26T17:01:54;14.55;;;4.60;;
34317;SDS011;20582;52.196;20.952;2023-02-26T17:06:47;13.77;;;4.05;;
34317;SDS011;20582;52.196;20.952;2023-02-26T17:09:23;12.75;;;4.97;;
34317;SDS011;20582;52.196;20.952;2023-02-26T17:11:50;12.45;;;4.18;;
34317;SDS011;20582;52.196;20.952;2023-02-26T17:14:27;12.07;;;4.80;;
34317;SDS011;20582;52.196;20.952;2023-02-26T17:16:55;13.02;;;5.10;;
34317;SDS011;20582;52.196;20.952;2023-02-26T17:19:21;12.30;;;5.40;;
34317;SDS011;20582;52.196;20.952;2023-02-26T17:21:49;16.10;;;5.60;;
34317;SDS011;20582;52.196;20.952;2023-02-26T17:24:19;15.95;;;6.20;;
34317;SDS011;20582;52.196;20.952;2023-02-26T17:26:46;16.02;;;6.10;;
34317;SDS011;20582;52.196;20.952;2023-02-26T17:29:18;11.90;;;5.40;;
34317;SDS011;20582;52.196;20.952;2023-02-26T17:31:47;14.38;;;6.03;;
34317;SDS011;20582;52.196;20.952;2023-02-26T17:34:13;16.15;;;6.97;;
34317;SDS011;20582;52.196;20.952;2023-02-26T17:36:39;14.48;;;5.60;;
34317;SDS011;20582;52.196;20.952;2023-02-26T17:39:05;15.60;;;6.32;;
34317;SDS011;20582;52.196;20.952;2023-02-26T17:41:31;15.93;;;6.63;;
34317;SDS011;20582;52.196;20.952;2023-02-26T17:43:58;16.02;;;6.38;;
34317;SDS011;20582;52.196;20.952;2023-02-26T17:46:24;18.35;;;7.10;;
34317;SDS011;20582;52.196;20.952;2023-02-26T17:48:50;17.55;;;6.43;;